sensor_id;sensor_type;location;lat;lon;timestamp;temperature;humidity
2651;DHT22;1335;48.180;16.342;2022-08-25T00:00:21;22.10;99.90
2651;DHT22;1335;48.180;16.342;2022-08-25T00:02:48;22.00;99.90
2651;DHT22;1335;48.180;16.342;2022-08-25T00:05:17;22.00;99.90
2651;DHT22;1335;48.180;16.342;2022-08-25T00:07:44;22.20;99.90
2651;DHT22;1335;48.180;16.342;2022-08-25T00:10:11;22.60;99.90
2651;DHT22;1335;48.180;16.342;2022-08-25T00:12:38;22.00;99.90
2651;DHT22;1335;48.180;16.342;2022-08-25T00:15:07;21.30;99.90
2651;DHT22;1335;48.180;16.342;2022-08-25T00:17:35;22.20;99.90
2651;DHT22;1335;48.180;16.342;2022-08-25T00:20:04;21.90;99.90
2651;DHT22;1335;48.180;16.342;2022-08-25T00:22:35;22.10;99.90
2651;DHT22;1335;48.180;16.342;2022-08-25T00:25:02;22.00;99.90
2651;DHT22;1335;48.180;16.342;2022-08-25T00:27:30;21.90;99.90
2651;DHT22;1335;48.180;16.342;2022-08-25T00:30:00;21.90;99.90
2651;DHT22;1335;48.180;16.342;2022-08-25T00:32:27;22.10;99.90
2651;DHT22;1335;48.180;16.342;2022-08-25T00:34:54;22.00;99.90
2651;DHT22;1335;48.180;16.342;2022-08-25T00:37:22;21.60;99.90
2651;DHT22;1335;48.180;16.342;2022-08-25T00:39:51;22.10;99.90
2651;DHT22;1335;48.180;16.342;2022-08-25T00:42:19;22.60;99.90
2651;DHT22;1335;48.180;16.342;2022-08-25T00:44:47;21.80;99.90
2651;DHT22;1335;48.180;16.342;2022-08-25T00:47:14;22.20;99.90
2651;DHT22;1335;48.180;16.342;2022-08-25T00:49:45;21.20;99.90
2651;DHT22;1335;48.180;16.342;2022-08-25T00:52:15;21.60;99.90
2651;DHT22;1335;48.180;16.342;2022-08-25T00:54:46;22.00;99.90
2651;DHT22;1335;48.180;16.342;2022-08-25T00:57:20;21.70;99.90
2651;DHT22;1335;48.180;16.342;2022-08-25T00:59:48;22.10;99.90
2651;DHT22;1335;48.180;16.342;2022-08-25T01:02:16;22.20;99.90
2651;DHT22;1335;48.180;16.342;2022-08-25T01:04:43;21.40;99.90
2651;DHT22;1335;48.180;16.342;2022-08-25T01:07:11;21.70;99.90
2651;DHT22;1335;48.180;16.342;2022-08-25T01:09:39;22.40;99.90
2651;DHT22;1335;48.180;16.342;2022-08-25T01:12:07;21.70;99.90
2651;DHT22;1335;48.180;16.342;2022-08-25T01:14:36;21.60;99.90
2651;DHT22;1335;48.180;16.342;2022-08-25T01:17:04;22.10;99.90
2651;DHT22;1335;48.180;16.342;2022-08-25T01:19:31;21.20;99.90
2651;DHT22;1335;48.180;16.342;2022-08-25T01:22:00;21.30;99.90
2651;DHT22;1335;48.180;16.342;2022-08-25T01:24:34;21.10;99.90
2651;DHT22;1335;48.180;16.342;2022-08-25T01:27:04;21.20;99.90
2651;DHT22;1335;48.180;16.342;2022-08-25T01:29:31;21.40;99.90
2651;DHT22;1335;48.180;16.342;2022-08-25T01:32:00;21.80;99.90
2651;DHT22;1335;48.180;16.342;2022-08-25T01:34:29;21.30;99.90
2651;DHT22;1335;48.180;16.342;2022-08-25T01:36:59;21.00;99.90
2651;DHT22;1335;48.180;16.342;2022-08-25T01:39:29;21.50;99.90
2651;DHT22;1335;48.180;16.342;2022-08-25T01:42:17;21.40;99.90
2651;DHT22;1335;48.180;16.342;2022-08-25T01:44:45;21.30;99.90
2651;DHT22;1335;48.180;16.342;2022-08-25T01:47:13;21.70;99.90
2651;DHT22;1335;48.180;16.342;2022-08-25T01:49:41;21.90;99.90
2651;DHT22;1335;48.180;16.342;2022-08-25T01:52:14;22.20;99.90
2651;DHT22;1335;48.180;16.342;2022-08-25T01:54:42;21.50;99.90
2651;DHT22;1335;48.180;16.342;2022-08-25T01:57:09;21.40;99.90
2651;DHT22;1335;48.180;16.342;2022-08-25T01:59:36;21.40;99.90
2651;DHT22;1335;48.180;16.342;2022-08-25T02:02:04;20.70;99.90
2651;DHT22;1335;48.180;16.342;2022-08-25T02:04:33;21.90;99.90
2651;DHT22;1335;48.180;16.342;2022-08-25T02:07:03;21.60;99.90
2651;DHT22;1335;48.180;16.342;2022-08-25T02:09:33;21.30;99.90
2651;DHT22;1335;48.180;16.342;2022-08-25T02:12:00;21.20;99.90
2651;DHT22;1335;48.180;16.342;2022-08-25T02:14:27;21.20;99.90
2651;DHT22;1335;48.180;16.342;2022-08-25T02:16:54;21.30;99.90
2651;DHT22;1335;48.180;16.342;2022-08-25T02:19:22;22.00;99.90
2651;DHT22;1335;48.180;16.342;2022-08-25T02:21:50;21.50;99.90
2651;DHT22;1335;48.180;16.342;2022-08-25T02:24:17;21.30;99.90
2651;DHT22;1335;48.180;16.342;2022-08-25T02:26:46;21.20;99.90
2651;DHT22;1335;48.180;16.342;2022-08-25T02:29:13;21.40;99.90
2651;DHT22;1335;48.180;16.342;2022-08-25T02:31:42;21.60;99.90
2651;DHT22;1335;48.180;16.342;2022-08-25T02:34:10;21.20;99.90
2651;DHT22;1335;48.180;16.342;2022-08-25T02:36:37;21.40;99.90
2651;DHT22;1335;48.180;16.342;2022-08-25T02:39:05;21.30;99.90
2651;DHT22;1335;48.180;16.342;2022-08-25T02:41:33;21.60;99.90
2651;DHT22;1335;48.180;16.342;2022-08-25T02:44:02;21.60;99.90
2651;DHT22;1335;48.180;16.342;2022-08-25T02:46:30;21.90;99.90
2651;DHT22;1335;48.180;16.342;2022-08-25T02:48:57;21.40;99.90
2651;DHT22;1335;48.180;16.342;2022-08-25T02:51:25;21.10;99.90
2651;DHT22;1335;48.180;16.342;2022-08-25T02:53:57;21.50;99.90
2651;DHT22;1335;48.180;16.342;2022-08-25T02:56:24;21.40;99.90
2651;DHT22;1335;48.180;16.342;2022-08-25T02:58:51;21.40;99.90
2651;DHT22;1335;48.180;16.342;2022-08-25T03:01:20;21.90;99.90
2651;DHT22;1335;48.180;16.342;2022-08-25T03:03:48;21.60;99.90
2651;DHT22;1335;48.180;16.342;2022-08-25T03:06:19;21.40;99.90
2651;DHT22;1335;48.180;16.342;2022-08-25T03:08:47;21.60;99.90
2651;DHT22;1335;48.180;16.342;2022-08-25T03:11:15;21.10;99.90
2651;DHT22;1335;48.180;16.342;2022-08-25T03:13:42;20.70;99.90
2651;DHT22;1335;48.180;16.342;2022-08-25T03:16:09;21.50;99.90
2651;DHT22;1335;48.180;16.342;2022-08-25T03:18:38;21.10;99.90
2651;DHT22;1335;48.180;16.342;2022-08-25T03:21:05;21.30;99.90
2651;DHT22;1335;48.180;16.342;2022-08-25T03:23:33;21.60;99.90
2651;DHT22;1335;48.180;16.342;2022-08-25T03:26:00;21.30;99.90
2651;DHT22;1335;48.180;16.342;2022-08-25T03:28:44;21.60;99.90
2651;DHT22;1335;48.180;16.342;2022-08-25T03:31:11;21.40;99.90
2651;DHT22;1335;48.180;16.342;2022-08-25T03:33:40;21.40;99.90
2651;DHT22;1335;48.180;16.342;2022-08-25T03:36:08;21.10;99.90
2651;DHT22;1335;48.180;16.342;2022-08-25T03:38:37;21.00;99.90
2651;DHT22;1335;48.180;16.342;2022-08-25T03:41:12;21.00;99.90
2651;DHT22;1335;48.180;16.342;2022-08-25T03:43:41;21.60;99.90
2651;DHT22;1335;48.180;16.342;2022-08-25T03:46:14;21.30;99.90
2651;DHT22;1335;48.180;16.342;2022-08-25T03:48:43;21.20;99.90
2651;DHT22;1335;48.180;16.342;2022-08-25T03:51:10;21.40;99.90
2651;DHT22;1335;48.180;16.342;2022-08-25T03:53:38;21.90;99.90
2651;DHT22;1335;48.180;16.342;2022-08-25T03:56:06;21.20;99.90
2651;DHT22;1335;48.180;16.342;2022-08-25T03:58:34;21.70;99.90
2651;DHT22;1335;48.180;16.342;2022-08-25T04:01:02;21.30;99.90
2651;DHT22;1335;48.180;16.342;2022-08-25T04:03:29;21.60;99.90
2651;DHT22;1335;48.180;16.342;2022-08-25T04:06:01;21.90;99.90
2651;DHT22;1335;48.180;16.342;2022-08-25T04:08:29;21.10;99.90
2651;DHT22;1335;48.180;16.342;2022-08-25T04:10:56;20.70;99.90
2651;DHT22;1335;48.180;16.342;2022-08-25T04:13:23;21.40;99.90
2651;DHT22;1335;48.180;16.342;2022-08-25T04:15:50;21.50;99.90
2651;DHT22;1335;48.180;16.342;2022-08-25T04:18:17;21.50;99.90
2651;DHT22;1335;48.180;16.342;2022-08-25T04:20:44;21.40;99.90
2651;DHT22;1335;48.180;16.342;2022-08-25T04:23:13;21.40;99.90
2651;DHT22;1335;48.180;16.342;2022-08-25T04:25:40;21.40;99.90
2651;DHT22;1335;48.180;16.342;2022-08-25T04:28:08;21.80;99.90
2651;DHT22;1335;48.180;16.342;2022-08-25T04:30:35;21.40;99.90
2651;DHT22;1335;48.180;16.342;2022-08-25T04:33:07;21.50;99.90
2651;DHT22;1335;48.180;16.342;2022-08-25T04:35:34;21.50;99.90
2651;DHT22;1335;48.180;16.342;2022-08-25T04:38:01;21.40;99.90
2651;DHT22;1335;48.180;16.342;2022-08-25T04:40:30;21.10;99.90
2651;DHT22;1335;48.180;16.342;2022-08-25T04:42:57;21.90;99.90
2651;DHT22;1335;48.180;16.342;2022-08-25T04:45:24;20.90;99.90
2651;DHT22;1335;48.180;16.342;2022-08-25T04:47:51;21.60;99.90
2651;DHT22;1335;48.180;16.342;2022-08-25T04:50:19;21.30;99.90
2651;DHT22;1335;48.180;16.342;2022-08-25T04:52:46;21.30;99.90
2651;DHT22;1335;48.180;16.342;2022-08-25T04:55:14;21.50;99.90
2651;DHT22;1335;48.180;16.342;2022-08-25T04:57:44;22.10;99.90
2651;DHT22;1335;48.180;16.342;2022-08-25T05:00:12;20.90;99.90
2651;DHT22;1335;48.180;16.342;2022-08-25T05:02:39;21.80;99.90
2651;DHT22;1335;48.180;16.342;2022-08-25T05:05:06;20.90;99.90
2651;DHT22;1335;48.180;16.342;2022-08-25T05:07:34;21.70;99.90
2651;DHT22;1335;48.180;16.342;2022-08-25T05:10:01;21.50;99.90
2651;DHT22;1335;48.180;16.342;2022-08-25T05:12:28;21.50;99.90
2651;DHT22;1335;48.180;16.342;2022-08-25T05:14:57;21.30;99.90
2651;DHT22;1335;48.180;16.342;2022-08-25T05:17:44;21.70;99.90
2651;DHT22;1335;48.180;16.342;2022-08-25T05:20:11;22.10;99.90
2651;DHT22;1335;48.180;16.342;2022-08-25T05:22:38;21.40;99.90
2651;DHT22;1335;48.180;16.342;2022-08-25T05:25:07;21.30;99.90
2651;DHT22;1335;48.180;16.342;2022-08-25T05:27:35;21.80;99.90
2651;DHT22;1335;48.180;16.342;2022-08-25T05:30:07;21.90;99.90
2651;DHT22;1335;48.180;16.342;2022-08-25T05:32:35;21.70;99.90
2651;DHT22;1335;48.180;16.342;2022-08-25T05:35:02;22.00;99.90
2651;DHT22;1335;48.180;16.342;2022-08-25T05:37:30;22.00;99.90
2651;DHT22;1335;48.180;16.342;2022-08-25T05:39:57;21.90;99.90
2651;DHT22;1335;48.180;16.342;2022-08-25T05:42:27;21.60;99.90
2651;DHT22;1335;48.180;16.342;2022-08-25T05:45:12;22.00;99.90
2651;DHT22;1335;48.180;16.342;2022-08-25T05:47:41;22.00;99.90
2651;DHT22;1335;48.180;16.342;2022-08-25T05:50:09;21.90;99.90
2651;DHT22;1335;48.180;16.342;2022-08-25T05:52:40;21.90;99.90
2651;DHT22;1335;48.180;16.342;2022-08-25T05:55:08;22.10;99.90
2651;DHT22;1335;48.180;16.342;2022-08-25T05:57:36;22.00;99.90
2651;DHT22;1335;48.180;16.342;2022-08-25T06:00:05;21.60;99.90
2651;DHT22;1335;48.180;16.342;2022-08-25T06:02:34;22.20;99.90
2651;DHT22;1335;48.180;16.342;2022-08-25T06:05:08;21.50;99.90
2651;DHT22;1335;48.180;16.342;2022-08-25T06:07:39;22.20;99.90
2651;DHT22;1335;48.180;16.342;2022-08-25T06:10:13;21.40;99.90
2651;DHT22;1335;48.180;16.342;2022-08-25T06:12:42;22.10;99.90
2651;DHT22;1335;48.180;16.342;2022-08-25T06:15:11;21.60;99.90
2651;DHT22;1335;48.180;16.342;2022-08-25T06:17:40;22.20;99.90
2651;DHT22;1335;48.180;16.342;2022-08-25T06:20:10;22.00;99.90
2651;DHT22;1335;48.180;16.342;2022-08-25T06:22:38;22.30;99.90
2651;DHT22;1335;48.180;16.342;2022-08-25T06:25:06;21.80;99.90
2651;DHT22;1335;48.180;16.342;2022-08-25T06:27:35;22.20;99.90
2651;DHT22;1335;48.180;16.342;2022-08-25T06:30:03;22.50;99.90
2651;DHT22;1335;48.180;16.342;2022-08-25T06:32:31;22.60;99.90
2651;DHT22;1335;48.180;16.342;2022-08-25T06:35:00;22.20;99.90
2651;DHT22;1335;48.180;16.342;2022-08-25T06:37:27;22.20;99.90
2651;DHT22;1335;48.180;16.342;2022-08-25T06:39:54;22.70;99.90
2651;DHT22;1335;48.180;16.342;2022-08-25T06:42:21;22.30;99.90
2651;DHT22;1335;48.180;16.342;2022-08-25T06:44:48;22.00;99.90
2651;DHT22;1335;48.180;16.342;2022-08-25T06:47:16;22.70;99.90
2651;DHT22;1335;48.180;16.342;2022-08-25T06:49:44;22.10;99.90
2651;DHT22;1335;48.180;16.342;2022-08-25T06:52:13;22.10;99.90
2651;DHT22;1335;48.180;16.342;2022-08-25T06:54:40;22.70;99.90
2651;DHT22;1335;48.180;16.342;2022-08-25T06:57:07;22.60;99.90
2651;DHT22;1335;48.180;16.342;2022-08-25T06:59:35;22.20;99.90
2651;DHT22;1335;48.180;16.342;2022-08-25T07:02:03;22.50;99.90
2651;DHT22;1335;48.180;16.342;2022-08-25T07:04:31;22.90;99.90
2651;DHT22;1335;48.180;16.342;2022-08-25T07:06:59;22.70;99.90
2651;DHT22;1335;48.180;16.342;2022-08-25T07:09:27;22.50;99.90
2651;DHT22;1335;48.180;16.342;2022-08-25T07:11:55;22.90;99.90
2651;DHT22;1335;48.180;16.342;2022-08-25T07:14:22;22.50;99.90
2651;DHT22;1335;48.180;16.342;2022-08-25T07:16:49;22.50;99.90
2651;DHT22;1335;48.180;16.342;2022-08-25T07:19:17;22.90;99.90
2651;DHT22;1335;48.180;16.342;2022-08-25T07:21:49;23.10;99.90
2651;DHT22;1335;48.180;16.342;2022-08-25T07:24:17;23.80;99.90
2651;DHT22;1335;48.180;16.342;2022-08-25T07:26:45;23.80;99.90
2651;DHT22;1335;48.180;16.342;2022-08-25T07:29:15;23.70;99.90
2651;DHT22;1335;48.180;16.342;2022-08-25T07:31:43;23.30;99.90
2651;DHT22;1335;48.180;16.342;2022-08-25T07:34:10;23.40;99.90
2651;DHT22;1335;48.180;16.342;2022-08-25T07:36:56;23.80;99.90
2651;DHT22;1335;48.180;16.342;2022-08-25T07:39:38;23.90;99.90
2651;DHT22;1335;48.180;16.342;2022-08-25T07:42:07;24.50;99.90
2651;DHT22;1335;48.180;16.342;2022-08-25T07:44:35;24.20;99.90
2651;DHT22;1335;48.180;16.342;2022-08-25T07:47:03;24.80;99.90
2651;DHT22;1335;48.180;16.342;2022-08-25T07:49:30;24.40;99.90
2651;DHT22;1335;48.180;16.342;2022-08-25T07:51:58;24.10;99.90
2651;DHT22;1335;48.180;16.342;2022-08-25T07:54:25;25.00;99.90
2651;DHT22;1335;48.180;16.342;2022-08-25T07:56:53;24.80;99.90
2651;DHT22;1335;48.180;16.342;2022-08-25T07:59:21;25.20;99.90
2651;DHT22;1335;48.180;16.342;2022-08-25T08:01:48;26.20;99.90
2651;DHT22;1335;48.180;16.342;2022-08-25T08:04:15;25.80;99.90
2651;DHT22;1335;48.180;16.342;2022-08-25T08:06:42;25.80;99.90
2651;DHT22;1335;48.180;16.342;2022-08-25T08:09:11;26.70;99.90
2651;DHT22;1335;48.180;16.342;2022-08-25T08:11:38;27.80;99.90
2651;DHT22;1335;48.180;16.342;2022-08-25T08:14:09;27.70;99.90
2651;DHT22;1335;48.180;16.342;2022-08-25T08:16:39;28.80;99.90
2651;DHT22;1335;48.180;16.342;2022-08-25T08:19:06;32.80;99.90
2651;DHT22;1335;48.180;16.342;2022-08-25T08:21:34;34.50;99.90
2651;DHT22;1335;48.180;16.342;2022-08-25T08:24:03;34.20;99.90
2651;DHT22;1335;48.180;16.342;2022-08-25T08:26:31;34.90;99.90
2651;DHT22;1335;48.180;16.342;2022-08-25T08:28:59;34.10;99.90
2651;DHT22;1335;48.180;16.342;2022-08-25T08:31:27;34.80;99.90
2651;DHT22;1335;48.180;16.342;2022-08-25T08:33:56;33.40;99.90
2651;DHT22;1335;48.180;16.342;2022-08-25T08:36:24;36.90;99.90
2651;DHT22;1335;48.180;16.342;2022-08-25T08:38:52;39.20;99.90
2651;DHT22;1335;48.180;16.342;2022-08-25T08:41:45;41.40;99.90
2651;DHT22;1335;48.180;16.342;2022-08-25T08:44:41;43.40;99.90
2651;DHT22;1335;48.180;16.342;2022-08-25T08:47:17;39.60;99.90
2651;DHT22;1335;48.180;16.342;2022-08-25T08:49:58;37.00;99.90
2651;DHT22;1335;48.180;16.342;2022-08-25T08:52:36;35.40;99.90
2651;DHT22;1335;48.180;16.342;2022-08-25T08:55:10;32.90;99.90
2651;DHT22;1335;48.180;16.342;2022-08-25T08:57:44;31.70;99.90
2651;DHT22;1335;48.180;16.342;2022-08-25T09:00:12;30.40;99.90
2651;DHT22;1335;48.180;16.342;2022-08-25T09:02:45;30.30;99.90
2651;DHT22;1335;48.180;16.342;2022-08-25T09:05:19;29.60;99.90
2651;DHT22;1335;48.180;16.342;2022-08-25T09:07:53;29.10;99.90
2651;DHT22;1335;48.180;16.342;2022-08-25T09:10:32;30.30;99.90
2651;DHT22;1335;48.180;16.342;2022-08-25T09:13:06;36.40;99.90
2651;DHT22;1335;48.180;16.342;2022-08-25T09:15:43;38.40;99.90
2651;DHT22;1335;48.180;16.342;2022-08-25T09:18:34;41.70;99.90
2651;DHT22;1335;48.180;16.342;2022-08-25T09:21:11;41.10;99.90
2651;DHT22;1335;48.180;16.342;2022-08-25T09:23:51;37.60;99.90
2651;DHT22;1335;48.180;16.342;2022-08-25T09:26:30;38.70;99.90
2651;DHT22;1335;48.180;16.342;2022-08-25T09:29:03;37.50;99.90
2651;DHT22;1335;48.180;16.342;2022-08-25T09:31:36;35.20;99.90
2651;DHT22;1335;48.180;16.342;2022-08-25T09:34:10;32.80;99.90
2651;DHT22;1335;48.180;16.342;2022-08-25T09:36:44;33.10;99.90
2651;DHT22;1335;48.180;16.342;2022-08-25T09:39:40;32.10;99.90
2651;DHT22;1335;48.180;16.342;2022-08-25T09:45:38;31.20;99.90
2651;DHT22;1335;48.180;16.342;2022-08-25T09:48:23;32.00;99.90
2651;DHT22;1335;48.180;16.342;2022-08-25T09:50:55;36.00;99.90
2651;DHT22;1335;48.180;16.342;2022-08-25T09:53:26;36.60;99.90
2651;DHT22;1335;48.180;16.342;2022-08-25T09:55:58;34.90;99.90
2651;DHT22;1335;48.180;16.342;2022-08-25T09:58:29;36.60;99.90
2651;DHT22;1335;48.180;16.342;2022-08-25T10:01:11;37.20;99.90
2651;DHT22;1335;48.180;16.342;2022-08-25T10:03:56;34.20;99.90
2651;DHT22;1335;48.180;16.342;2022-08-25T10:06:25;31.60;99.90
2651;DHT22;1335;48.180;16.342;2022-08-25T10:08:58;32.30;99.90
2651;DHT22;1335;48.180;16.342;2022-08-25T10:11:36;35.40;99.90
2651;DHT22;1335;48.180;16.342;2022-08-25T10:14:14;38.10;99.90
2651;DHT22;1335;48.180;16.342;2022-08-25T10:16:43;36.60;99.90
2651;DHT22;1335;48.180;16.342;2022-08-25T10:22:20;34.40;99.90
2651;DHT22;1335;48.180;16.342;2022-08-25T10:24:51;33.50;99.90
2651;DHT22;1335;48.180;16.342;2022-08-25T10:27:30;32.30;99.90
2651;DHT22;1335;48.180;16.342;2022-08-25T10:30:13;30.50;99.90
2651;DHT22;1335;48.180;16.342;2022-08-25T10:32:57;34.70;99.90
2651;DHT22;1335;48.180;16.342;2022-08-25T10:35:56;35.60;99.90
2651;DHT22;1335;48.180;16.342;2022-08-25T10:38:37;32.60;99.90
2651;DHT22;1335;48.180;16.342;2022-08-25T10:41:31;33.90;99.90
2651;DHT22;1335;48.180;16.342;2022-08-25T10:44:06;34.60;99.90
2651;DHT22;1335;48.180;16.342;2022-08-25T10:47:10;32.90;99.90
2651;DHT22;1335;48.180;16.342;2022-08-25T10:49:45;33.70;99.90
2651;DHT22;1335;48.180;16.342;2022-08-25T10:52:25;33.50;99.90
2651;DHT22;1335;48.180;16.342;2022-08-25T10:55:03;33.50;99.90
2651;DHT22;1335;48.180;16.342;2022-08-25T10:58:12;35.40;99.90
2651;DHT22;1335;48.180;16.342;2022-08-25T11:00:46;39.80;99.90
2651;DHT22;1335;48.180;16.342;2022-08-25T11:03:34;40.50;99.90
2651;DHT22;1335;48.180;16.342;2022-08-25T11:06:08;40.50;99.90
2651;DHT22;1335;48.180;16.342;2022-08-25T11:08:42;41.30;99.90
2651;DHT22;1335;48.180;16.342;2022-08-25T11:11:15;36.60;99.90
2651;DHT22;1335;48.180;16.342;2022-08-25T11:13:50;38.00;99.90
2651;DHT22;1335;48.180;16.342;2022-08-25T11:16:35;39.00;99.90
2651;DHT22;1335;48.180;16.342;2022-08-25T11:19:09;36.30;99.90
2651;DHT22;1335;48.180;16.342;2022-08-25T11:21:47;39.30;99.90
2651;DHT22;1335;48.180;16.342;2022-08-25T11:24:41;39.10;99.90
2651;DHT22;1335;48.180;16.342;2022-08-25T11:27:31;38.30;99.90
2651;DHT22;1335;48.180;16.342;2022-08-25T11:30:10;39.50;99.90
2651;DHT22;1335;48.180;16.342;2022-08-25T11:32:46;38.70;99.90
2651;DHT22;1335;48.180;16.342;2022-08-25T11:35:16;39.90;99.90
2651;DHT22;1335;48.180;16.342;2022-08-25T11:37:56;40.40;99.90
2651;DHT22;1335;48.180;16.342;2022-08-25T11:40:40;40.10;99.90
2651;DHT22;1335;48.180;16.342;2022-08-25T11:43:28;41.40;99.90
2651;DHT22;1335;48.180;16.342;2022-08-25T11:46:24;40.40;99.90
2651;DHT22;1335;48.180;16.342;2022-08-25T11:49:02;39.00;99.90
2651;DHT22;1335;48.180;16.342;2022-08-25T11:51:40;37.50;99.90
2651;DHT22;1335;48.180;16.342;2022-08-25T11:54:20;37.10;99.90
2651;DHT22;1335;48.180;16.342;2022-08-25T11:56:55;37.30;99.90
2651;DHT22;1335;48.180;16.342;2022-08-25T12:00:00;37.20;99.90
2651;DHT22;1335;48.180;16.342;2022-08-25T12:02:37;34.90;99.90
2651;DHT22;1335;48.180;16.342;2022-08-25T12:05:06;35.30;99.90
2651;DHT22;1335;48.180;16.342;2022-08-25T12:08:01;31.90;99.90
2651;DHT22;1335;48.180;16.342;2022-08-25T12:11:00;30.10;99.90
2651;DHT22;1335;48.180;16.342;2022-08-25T12:13:51;31.20;99.90
2651;DHT22;1335;48.180;16.342;2022-08-25T12:16:40;32.10;99.90
2651;DHT22;1335;48.180;16.342;2022-08-25T12:19:28;32.70;99.90
2651;DHT22;1335;48.180;16.342;2022-08-25T12:21:57;33.00;99.90
2651;DHT22;1335;48.180;16.342;2022-08-25T12:24:50;32.40;99.90
2651;DHT22;1335;48.180;16.342;2022-08-25T12:27:24;32.70;99.90
2651;DHT22;1335;48.180;16.342;2022-08-25T12:29:56;34.60;99.90
2651;DHT22;1335;48.180;16.342;2022-08-25T12:32:39;35.90;99.90
2651;DHT22;1335;48.180;16.342;2022-08-25T12:35:55;36.30;99.90
2651;DHT22;1335;48.180;16.342;2022-08-25T12:38:33;34.70;99.90
2651;DHT22;1335;48.180;16.342;2022-08-25T12:41:07;35.70;99.90
2651;DHT22;1335;48.180;16.342;2022-08-25T12:43:37;36.10;99.90
2651;DHT22;1335;48.180;16.342;2022-08-25T12:46:34;34.50;99.90
2651;DHT22;1335;48.180;16.342;2022-08-25T12:49:04;33.90;99.90
2651;DHT22;1335;48.180;16.342;2022-08-25T12:51:51;31.70;99.90
2651;DHT22;1335;48.180;16.342;2022-08-25T12:54:24;31.30;99.90
2651;DHT22;1335;48.180;16.342;2022-08-25T12:56:56;31.50;99.90
2651;DHT22;1335;48.180;16.342;2022-08-25T12:59:32;32.60;99.90
2651;DHT22;1335;48.180;16.342;2022-08-25T13:02:16;31.10;99.90
2651;DHT22;1335;48.180;16.342;2022-08-25T13:05:04;31.40;99.90
2651;DHT22;1335;48.180;16.342;2022-08-25T13:07:58;30.90;99.90
2651;DHT22;1335;48.180;16.342;2022-08-25T13:10:40;31.50;99.90
2651;DHT22;1335;48.180;16.342;2022-08-25T13:13:15;32.90;99.90
2651;DHT22;1335;48.180;16.342;2022-08-25T13:15:56;33.60;99.90
2651;DHT22;1335;48.180;16.342;2022-08-25T13:18:26;34.00;99.90
2651;DHT22;1335;48.180;16.342;2022-08-25T13:21:03;33.90;99.90
2651;DHT22;1335;48.180;16.342;2022-08-25T13:23:36;32.80;99.90
2651;DHT22;1335;48.180;16.342;2022-08-25T13:26:04;33.30;99.90
2651;DHT22;1335;48.180;16.342;2022-08-25T13:28:34;33.30;99.90
2651;DHT22;1335;48.180;16.342;2022-08-25T13:31:04;32.80;99.90
2651;DHT22;1335;48.180;16.342;2022-08-25T13:33:34;32.80;99.90
2651;DHT22;1335;48.180;16.342;2022-08-25T13:36:02;32.00;99.90
2651;DHT22;1335;48.180;16.342;2022-08-25T13:38:48;33.50;99.90
2651;DHT22;1335;48.180;16.342;2022-08-25T13:41:22;33.40;99.90
2651;DHT22;1335;48.180;16.342;2022-08-25T13:43:50;33.60;99.90
2651;DHT22;1335;48.180;16.342;2022-08-25T13:46:20;33.50;99.90
2651;DHT22;1335;48.180;16.342;2022-08-25T13:48:48;33.20;99.90
2651;DHT22;1335;48.180;16.342;2022-08-25T13:51:21;32.50;99.90
2651;DHT22;1335;48.180;16.342;2022-08-25T13:53:53;32.50;99.90
2651;DHT22;1335;48.180;16.342;2022-08-25T13:56:33;32.80;99.90
2651;DHT22;1335;48.180;16.342;2022-08-25T13:59:06;31.50;99.90
2651;DHT22;1335;48.180;16.342;2022-08-25T14:01:45;30.30;99.90
2651;DHT22;1335;48.180;16.342;2022-08-25T14:04:28;29.50;99.90
2651;DHT22;1335;48.180;16.342;2022-08-25T14:07:23;29.70;99.90
2651;DHT22;1335;48.180;16.342;2022-08-25T14:09:55;29.10;99.90
2651;DHT22;1335;48.180;16.342;2022-08-25T14:12:32;29.10;99.90
2651;DHT22;1335;48.180;16.342;2022-08-25T14:15:11;28.40;99.90
2651;DHT22;1335;48.180;16.342;2022-08-25T14:17:40;28.00;99.90
2651;DHT22;1335;48.180;16.342;2022-08-25T14:20:19;28.40;99.90
2651;DHT22;1335;48.180;16.342;2022-08-25T14:22:52;28.60;99.90
2651;DHT22;1335;48.180;16.342;2022-08-25T14:25:21;28.90;99.90
2651;DHT22;1335;48.180;16.342;2022-08-25T14:27:54;29.00;99.90
2651;DHT22;1335;48.180;16.342;2022-08-25T14:30:22;29.30;99.90
2651;DHT22;1335;48.180;16.342;2022-08-25T14:32:49;29.10;99.90
2651;DHT22;1335;48.180;16.342;2022-08-25T14:35:17;29.60;99.90
2651;DHT22;1335;48.180;16.342;2022-08-25T14:37:45;29.80;99.90
2651;DHT22;1335;48.180;16.342;2022-08-25T14:40:14;30.10;99.90
2651;DHT22;1335;48.180;16.342;2022-08-25T14:42:46;28.70;99.90
2651;DHT22;1335;48.180;16.342;2022-08-25T14:45:13;29.30;99.90
2651;DHT22;1335;48.180;16.342;2022-08-25T14:47:41;29.50;99.90
2651;DHT22;1335;48.180;16.342;2022-08-25T14:50:10;29.30;99.90
2651;DHT22;1335;48.180;16.342;2022-08-25T14:52:37;30.10;99.90
2651;DHT22;1335;48.180;16.342;2022-08-25T14:55:06;29.00;99.90
2651;DHT22;1335;48.180;16.342;2022-08-25T14:57:36;29.00;99.90
2651;DHT22;1335;48.180;16.342;2022-08-25T15:00:06;28.20;99.90
2651;DHT22;1335;48.180;16.342;2022-08-25T15:02:37;28.00;99.90
2651;DHT22;1335;48.180;16.342;2022-08-25T15:05:08;28.40;99.90
2651;DHT22;1335;48.180;16.342;2022-08-25T15:07:37;28.00;99.90
2651;DHT22;1335;48.180;16.342;2022-08-25T15:10:22;28.50;99.90
2651;DHT22;1335;48.180;16.342;2022-08-25T15:12:50;27.90;99.90
2651;DHT22;1335;48.180;16.342;2022-08-25T15:15:20;28.30;99.90
2651;DHT22;1335;48.180;16.342;2022-08-25T15:17:51;28.20;99.90
2651;DHT22;1335;48.180;16.342;2022-08-25T15:20:19;28.50;99.90
2651;DHT22;1335;48.180;16.342;2022-08-25T15:22:46;28.50;99.90
2651;DHT22;1335;48.180;16.342;2022-08-25T15:25:13;27.90;99.90
2651;DHT22;1335;48.180;16.342;2022-08-25T15:27:40;27.60;99.90
2651;DHT22;1335;48.180;16.342;2022-08-25T15:30:09;28.50;99.90
2651;DHT22;1335;48.180;16.342;2022-08-25T15:32:37;27.90;99.90
2651;DHT22;1335;48.180;16.342;2022-08-25T15:35:05;28.20;99.90
2651;DHT22;1335;48.180;16.342;2022-08-25T15:37:33;27.80;99.90
2651;DHT22;1335;48.180;16.342;2022-08-25T15:40:03;27.90;99.90
2651;DHT22;1335;48.180;16.342;2022-08-25T15:42:30;28.10;99.90
2651;DHT22;1335;48.180;16.342;2022-08-25T15:44:57;27.60;99.90
2651;DHT22;1335;48.180;16.342;2022-08-25T15:47:25;27.90;99.90
2651;DHT22;1335;48.180;16.342;2022-08-25T15:50:03;27.70;99.90
2651;DHT22;1335;48.180;16.342;2022-08-25T15:52:30;28.00;99.90
2651;DHT22;1335;48.180;16.342;2022-08-25T15:54:57;28.00;99.90
2651;DHT22;1335;48.180;16.342;2022-08-25T15:57:25;28.40;99.90
2651;DHT22;1335;48.180;16.342;2022-08-25T15:59:52;27.80;99.90
2651;DHT22;1335;48.180;16.342;2022-08-25T16:02:20;28.20;99.90
2651;DHT22;1335;48.180;16.342;2022-08-25T16:04:47;28.60;99.90
2651;DHT22;1335;48.180;16.342;2022-08-25T16:07:18;28.50;99.90
2651;DHT22;1335;48.180;16.342;2022-08-25T16:09:45;27.80;99.90
2651;DHT22;1335;48.180;16.342;2022-08-25T16:12:13;28.10;99.90
2651;DHT22;1335;48.180;16.342;2022-08-25T16:14:41;27.80;99.90
2651;DHT22;1335;48.180;16.342;2022-08-25T16:17:08;27.60;99.90
2651;DHT22;1335;48.180;16.342;2022-08-25T16:19:35;28.10;99.90
2651;DHT22;1335;48.180;16.342;2022-08-25T16:22:02;27.60;99.90